Terminal Aerodrome Forecast
Issued by NWS Flagstaff, AZ

Home | Current Version | Previous Version | Text Only | Print | Product List | Glossary On
Versions: 1 2 3 4 5 6 7 8 9 10 11 12 13 14 15 16 17 18 19 20 21 22
000
FTUS45 KFGZ 191530 AAA
TAFFLG
TAF AMD
KFLG 191530Z 1916/2012 23013G19KT 2SM -SHSN BR BKN008 OVC012
      TEMPO 1916/1919 1SM -SN BR VV009
     FM200000 23011KT 1SM -SN BR OVC008=

USA.gov is the U.S. government's official web portal to all federal, state and local government web resources and services.